OINR  Ramsar  Airport

Iran

Add Bookmark
Status IATA
Operational RZR
Latitude Longitude
36° 54' 35" N 50° 40' 46" E
36.909901 50.679600
Local (DST + 5) UTC (GMT + 4)
Mar 27, 2015 11:23 Mar 27, 2015 06:53
Sunrise-Sunset Local UTC
Begin Civil Twilight 06:33 02:03
Sunrise 06:59 02:29
Sunset 07:26 14:56
End Civil Twilight 07:52 15:22

Current Weather

METAR Observed VFR
OINR 270600Z 08004KT 9999 FEW040 14/07 Q1025 Fri, Mar 27, 2015 @ 06:00 UTC
(53 Minutes ago)
Visual Flight Rules
Wind Visibility Clouds Conditions
080° at 4 knots (7 kph) 10 km or more
  • Few at 4,000' AGL
  • No significant weather
Temperatures Readings Precipitation
Current Temp 14°C (57°F)
Dewpoint 7°C (45°F)
Humidity 63%
Altimeter 30.27"Hg
Sea Level Pressure 1025mb
None Recorded

Additional weather within a 92.6km radius of OINR

Map ICAO Location
OINN 75km E (111°)

24 Hour Weather History

Loading
-

24 Hour Weather Graphs

Loading
-

CheckWX.com is intended as a tool to help pilots better visualize weather data. It is not intended as a substitute for an official weather briefing obtained from a Flight Service Station. CheckWX.com does not meet the FAA requirements for an official pre-flight weather briefing. Therefore, it's important that pilots still call and obtain an official FSS pre-flight weather briefing.